sensor_id;sensor_type;location;lat;lon;timestamp;temperature;humidity
42663;DHT22;44330;51.360;6.686;2022-10-31T00:01:33;14.10;90.30
42663;DHT22;44330;51.360;6.686;2022-10-31T00:03:59;14.00;90.30
42663;DHT22;44330;51.360;6.686;2022-10-31T00:06:25;14.00;90.30
42663;DHT22;44330;51.360;6.686;2022-10-31T00:08:59;13.90;90.30
42663;DHT22;44330;51.360;6.686;2022-10-31T00:11:25;14.00;90.50
42663;DHT22;44330;51.360;6.686;2022-10-31T00:13:51;13.90;90.60
42663;DHT22;44330;51.360;6.686;2022-10-31T00:16:22;13.80;90.40
42663;DHT22;44330;51.360;6.686;2022-10-31T00:18:53;13.80;90.40
42663;DHT22;44330;51.360;6.686;2022-10-31T00:21:20;13.90;90.50
42663;DHT22;44330;51.360;6.686;2022-10-31T00:23:45;13.80;90.50
42663;DHT22;44330;51.360;6.686;2022-10-31T00:26:11;13.80;90.60
42663;DHT22;44330;51.360;6.686;2022-10-31T00:28:37;13.80;90.70
42663;DHT22;44330;51.360;6.686;2022-10-31T00:31:04;13.80;90.70
42663;DHT22;44330;51.360;6.686;2022-10-31T00:33:32;13.70;90.80
42663;DHT22;44330;51.360;6.686;2022-10-31T00:35:58;13.70;90.90
42663;DHT22;44330;51.360;6.686;2022-10-31T00:38:23;13.70;90.90
42663;DHT22;44330;51.360;6.686;2022-10-31T00:40:49;13.70;90.90
42663;DHT22;44330;51.360;6.686;2022-10-31T00:43:14;13.70;91.30
42663;DHT22;44330;51.360;6.686;2022-10-31T00:45:41;13.70;91.10
42663;DHT22;44330;51.360;6.686;2022-10-31T00:48:07;13.70;91.20
42663;DHT22;44330;51.360;6.686;2022-10-31T00:50:33;13.70;91.20
42663;DHT22;44330;51.360;6.686;2022-10-31T00:52:59;13.70;91.30
42663;DHT22;44330;51.360;6.686;2022-10-31T00:55:24;13.70;91.30
42663;DHT22;44330;51.360;6.686;2022-10-31T00:57:50;13.70;91.40
42663;DHT22;44330;51.360;6.686;2022-10-31T01:00:16;13.60;91.40
42663;DHT22;44330;51.360;6.686;2022-10-31T01:02:42;13.60;91.50
42663;DHT22;44330;51.360;6.686;2022-10-31T01:05:07;13.70;91.60
42663;DHT22;44330;51.360;6.686;2022-10-31T01:07:36;13.70;91.60
42663;DHT22;44330;51.360;6.686;2022-10-31T01:10:02;13.70;91.50
42663;DHT22;44330;51.360;6.686;2022-10-31T01:12:27;13.60;91.50
42663;DHT22;44330;51.360;6.686;2022-10-31T01:14:53;13.70;91.40
42663;DHT22;44330;51.360;6.686;2022-10-31T01:17:18;13.70;91.40
42663;DHT22;44330;51.360;6.686;2022-10-31T01:19:45;13.60;91.40
42663;DHT22;44330;51.360;6.686;2022-10-31T01:22:10;13.60;91.50
42663;DHT22;44330;51.360;6.686;2022-10-31T01:24:36;13.60;91.50
42663;DHT22;44330;51.360;6.686;2022-10-31T01:27:01;13.50;91.40
42663;DHT22;44330;51.360;6.686;2022-10-31T01:29:27;13.50;91.40
42663;DHT22;44330;51.360;6.686;2022-10-31T01:31:52;13.50;91.40
42663;DHT22;44330;51.360;6.686;2022-10-31T01:34:18;13.40;91.40
42663;DHT22;44330;51.360;6.686;2022-10-31T01:36:44;13.40;91.40
42663;DHT22;44330;51.360;6.686;2022-10-31T01:39:13;13.30;91.50
42663;DHT22;44330;51.360;6.686;2022-10-31T01:41:45;13.30;91.70
42663;DHT22;44330;51.360;6.686;2022-10-31T01:46:44;13.20;91.80
42663;DHT22;44330;51.360;6.686;2022-10-31T01:55:02;13.10;92.20
42663;DHT22;44330;51.360;6.686;2022-10-31T01:57:28;13.10;92.30
42663;DHT22;44330;51.360;6.686;2022-10-31T01:59:59;13.00;92.30
42663;DHT22;44330;51.360;6.686;2022-10-31T02:02:27;13.00;92.40
42663;DHT22;44330;51.360;6.686;2022-10-31T02:04:54;12.90;92.50
42663;DHT22;44330;51.360;6.686;2022-10-31T02:07:36;12.90;92.60
42663;DHT22;44330;51.360;6.686;2022-10-31T02:10:04;12.90;92.60
42663;DHT22;44330;51.360;6.686;2022-10-31T02:12:31;12.70;92.60
42663;DHT22;44330;51.360;6.686;2022-10-31T02:14:58;12.80;92.70
42663;DHT22;44330;51.360;6.686;2022-10-31T02:17:24;12.80;92.70
42663;DHT22;44330;51.360;6.686;2022-10-31T02:20:16;12.70;92.80
42663;DHT22;44330;51.360;6.686;2022-10-31T02:23:20;12.70;92.90
42663;DHT22;44330;51.360;6.686;2022-10-31T02:39:43;12.80;93.00
42663;DHT22;44330;51.360;6.686;2022-10-31T02:42:26;12.80;93.00
42663;DHT22;44330;51.360;6.686;2022-10-31T02:47:35;12.70;92.90
42663;DHT22;44330;51.360;6.686;2022-10-31T02:50:06;12.70;92.90
42663;DHT22;44330;51.360;6.686;2022-10-31T02:52:34;12.70;92.90
42663;DHT22;44330;51.360;6.686;2022-10-31T02:57:47;12.60;92.90
42663;DHT22;44330;51.360;6.686;2022-10-31T03:00:13;12.60;93.00
42663;DHT22;44330;51.360;6.686;2022-10-31T03:05:36;12.50;93.00
42663;DHT22;44330;51.360;6.686;2022-10-31T03:10:51;12.50;93.00
42663;DHT22;44330;51.360;6.686;2022-10-31T03:15:51;12.40;92.90
42663;DHT22;44330;51.360;6.686;2022-10-31T03:18:28;12.40;92.90
42663;DHT22;44330;51.360;6.686;2022-10-31T03:21:08;12.30;92.90
42663;DHT22;44330;51.360;6.686;2022-10-31T03:23:36;12.30;92.90
42663;DHT22;44330;51.360;6.686;2022-10-31T03:26:04;12.20;93.00
42663;DHT22;44330;51.360;6.686;2022-10-31T03:28:36;12.20;93.00
42663;DHT22;44330;51.360;6.686;2022-10-31T03:31:04;12.20;93.10
42663;DHT22;44330;51.360;6.686;2022-10-31T03:33:33;12.20;93.10
42663;DHT22;44330;51.360;6.686;2022-10-31T03:36:02;12.20;93.20
42663;DHT22;44330;51.360;6.686;2022-10-31T03:38:29;12.10;93.10
42663;DHT22;44330;51.360;6.686;2022-10-31T03:40:58;12.10;93.10
42663;DHT22;44330;51.360;6.686;2022-10-31T03:43:28;12.10;93.20
42663;DHT22;44330;51.360;6.686;2022-10-31T03:45:56;12.10;93.20
42663;DHT22;44330;51.360;6.686;2022-10-31T03:48:22;12.00;93.20
42663;DHT22;44330;51.360;6.686;2022-10-31T03:53:19;12.00;93.30
42663;DHT22;44330;51.360;6.686;2022-10-31T03:55:50;12.00;93.40
42663;DHT22;44330;51.360;6.686;2022-10-31T03:58:27;12.10;93.50
42663;DHT22;44330;51.360;6.686;2022-10-31T04:00:56;12.10;93.50
42663;DHT22;44330;51.360;6.686;2022-10-31T04:03:31;12.10;93.50
42663;DHT22;44330;51.360;6.686;2022-10-31T04:06:00;12.10;93.60
42663;DHT22;44330;51.360;6.686;2022-10-31T04:08:30;12.10;93.60
42663;DHT22;44330;51.360;6.686;2022-10-31T04:10:57;12.10;93.60
42663;DHT22;44330;51.360;6.686;2022-10-31T04:13:27;12.10;93.70
42663;DHT22;44330;51.360;6.686;2022-10-31T04:15:55;12.10;93.70
42663;DHT22;44330;51.360;6.686;2022-10-31T04:18:22;12.10;93.70
42663;DHT22;44330;51.360;6.686;2022-10-31T04:20:48;12.10;93.70
42663;DHT22;44330;51.360;6.686;2022-10-31T04:23:24;12.00;93.60
42663;DHT22;44330;51.360;6.686;2022-10-31T04:25:50;12.10;93.70
42663;DHT22;44330;51.360;6.686;2022-10-31T04:28:15;12.00;93.70
42663;DHT22;44330;51.360;6.686;2022-10-31T04:30:41;12.10;93.80
42663;DHT22;44330;51.360;6.686;2022-10-31T04:33:06;12.00;93.70
42663;DHT22;44330;51.360;6.686;2022-10-31T04:35:32;12.10;93.80
42663;DHT22;44330;51.360;6.686;2022-10-31T04:37:57;12.10;93.80
42663;DHT22;44330;51.360;6.686;2022-10-31T04:40:23;12.00;93.80
42663;DHT22;44330;51.360;6.686;2022-10-31T04:42:48;12.10;93.80
42663;DHT22;44330;51.360;6.686;2022-10-31T04:45:14;12.10;93.80
42663;DHT22;44330;51.360;6.686;2022-10-31T04:47:40;12.10;93.80
42663;DHT22;44330;51.360;6.686;2022-10-31T04:50:05;12.10;93.80
42663;DHT22;44330;51.360;6.686;2022-10-31T04:52:31;12.10;93.80
42663;DHT22;44330;51.360;6.686;2022-10-31T04:54:56;12.10;93.80
42663;DHT22;44330;51.360;6.686;2022-10-31T04:57:22;12.00;93.70
42663;DHT22;44330;51.360;6.686;2022-10-31T04:59:47;12.00;93.80
42663;DHT22;44330;51.360;6.686;2022-10-31T05:02:13;12.00;93.80
42663;DHT22;44330;51.360;6.686;2022-10-31T05:04:38;11.90;93.70
42663;DHT22;44330;51.360;6.686;2022-10-31T05:07:04;11.90;93.80
42663;DHT22;44330;51.360;6.686;2022-10-31T05:09:29;11.80;93.80
42663;DHT22;44330;51.360;6.686;2022-10-31T05:11:55;11.80;93.80
42663;DHT22;44330;51.360;6.686;2022-10-31T05:14:21;11.90;93.80
42663;DHT22;44330;51.360;6.686;2022-10-31T05:16:46;11.80;93.80
42663;DHT22;44330;51.360;6.686;2022-10-31T05:19:12;11.80;93.90
42663;DHT22;44330;51.360;6.686;2022-10-31T05:21:37;11.70;93.90
42663;DHT22;44330;51.360;6.686;2022-10-31T05:24:03;11.70;93.90
42663;DHT22;44330;51.360;6.686;2022-10-31T05:26:28;11.70;93.90
42663;DHT22;44330;51.360;6.686;2022-10-31T05:28:54;11.70;93.90
42663;DHT22;44330;51.360;6.686;2022-10-31T05:31:20;11.60;93.90
42663;DHT22;44330;51.360;6.686;2022-10-31T05:33:45;11.60;93.90
42663;DHT22;44330;51.360;6.686;2022-10-31T05:36:11;11.70;93.90
42663;DHT22;44330;51.360;6.686;2022-10-31T05:38:36;11.60;93.90
42663;DHT22;44330;51.360;6.686;2022-10-31T05:41:02;11.70;93.90
42663;DHT22;44330;51.360;6.686;2022-10-31T05:43:52;11.60;93.90
42663;DHT22;44330;51.360;6.686;2022-10-31T05:46:16;11.70;93.90
42663;DHT22;44330;51.360;6.686;2022-10-31T05:48:42;11.60;93.90
42663;DHT22;44330;51.360;6.686;2022-10-31T05:51:07;11.60;93.90
42663;DHT22;44330;51.360;6.686;2022-10-31T05:53:33;11.60;93.90
42663;DHT22;44330;51.360;6.686;2022-10-31T05:55:58;11.60;93.90
42663;DHT22;44330;51.360;6.686;2022-10-31T05:58:24;11.60;93.90
42663;DHT22;44330;51.360;6.686;2022-10-31T06:00:49;11.60;93.90
42663;DHT22;44330;51.360;6.686;2022-10-31T06:03:15;11.60;93.90
42663;DHT22;44330;51.360;6.686;2022-10-31T06:05:40;11.60;93.90
42663;DHT22;44330;51.360;6.686;2022-10-31T06:08:06;11.60;93.90
42663;DHT22;44330;51.360;6.686;2022-10-31T06:10:32;11.60;93.90
42663;DHT22;44330;51.360;6.686;2022-10-31T06:12:57;11.60;93.90
42663;DHT22;44330;51.360;6.686;2022-10-31T06:15:25;11.60;94.00
42663;DHT22;44330;51.360;6.686;2022-10-31T06:17:58;11.60;93.90
42663;DHT22;44330;51.360;6.686;2022-10-31T06:20:24;11.60;94.00
42663;DHT22;44330;51.360;6.686;2022-10-31T06:22:49;11.60;94.00
42663;DHT22;44330;51.360;6.686;2022-10-31T06:25:15;11.60;94.00
42663;DHT22;44330;51.360;6.686;2022-10-31T06:27:40;11.60;94.00
42663;DHT22;44330;51.360;6.686;2022-10-31T06:30:06;11.60;94.10
42663;DHT22;44330;51.360;6.686;2022-10-31T06:32:32;11.60;94.00
42663;DHT22;44330;51.360;6.686;2022-10-31T06:34:57;11.60;94.00
42663;DHT22;44330;51.360;6.686;2022-10-31T06:37:23;11.60;94.00
42663;DHT22;44330;51.360;6.686;2022-10-31T06:39:49;11.50;94.00
42663;DHT22;44330;51.360;6.686;2022-10-31T06:42:16;11.50;94.00
42663;DHT22;44330;51.360;6.686;2022-10-31T06:44:41;11.50;94.10
42663;DHT22;44330;51.360;6.686;2022-10-31T06:47:07;11.50;94.10
42663;DHT22;44330;51.360;6.686;2022-10-31T06:49:32;11.50;94.10
42663;DHT22;44330;51.360;6.686;2022-10-31T06:51:58;11.50;94.10
42663;DHT22;44330;51.360;6.686;2022-10-31T06:54:24;11.50;94.10
42663;DHT22;44330;51.360;6.686;2022-10-31T06:56:49;11.50;94.10
42663;DHT22;44330;51.360;6.686;2022-10-31T06:59:15;11.50;94.10
42663;DHT22;44330;51.360;6.686;2022-10-31T07:01:41;11.50;94.20
42663;DHT22;44330;51.360;6.686;2022-10-31T07:04:11;11.50;94.20
42663;DHT22;44330;51.360;6.686;2022-10-31T07:06:36;11.50;94.20
42663;DHT22;44330;51.360;6.686;2022-10-31T07:09:02;11.50;94.20
42663;DHT22;44330;51.360;6.686;2022-10-31T07:11:28;11.50;94.20
42663;DHT22;44330;51.360;6.686;2022-10-31T07:13:53;11.50;94.20
42663;DHT22;44330;51.360;6.686;2022-10-31T07:16:22;11.50;94.30
42663;DHT22;44330;51.360;6.686;2022-10-31T07:18:47;11.50;94.20
42663;DHT22;44330;51.360;6.686;2022-10-31T07:21:15;11.50;94.20
42663;DHT22;44330;51.360;6.686;2022-10-31T07:23:41;11.40;94.20
42663;DHT22;44330;51.360;6.686;2022-10-31T07:26:07;11.40;94.30
42663;DHT22;44330;51.360;6.686;2022-10-31T07:28:32;11.50;94.30
42663;DHT22;44330;51.360;6.686;2022-10-31T07:30:58;11.50;94.50
42663;DHT22;44330;51.360;6.686;2022-10-31T07:33:26;11.50;94.40
42663;DHT22;44330;51.360;6.686;2022-10-31T07:35:53;11.50;94.60
42663;DHT22;44330;51.360;6.686;2022-10-31T07:38:18;11.60;94.50
42663;DHT22;44330;51.360;6.686;2022-10-31T07:40:49;11.70;94.50
42663;DHT22;44330;51.360;6.686;2022-10-31T07:43:15;11.70;94.50
42663;DHT22;44330;51.360;6.686;2022-10-31T07:45:41;11.70;94.50
42663;DHT22;44330;51.360;6.686;2022-10-31T07:48:07;11.80;94.50
42663;DHT22;44330;51.360;6.686;2022-10-31T07:50:33;11.80;94.50
42663;DHT22;44330;51.360;6.686;2022-10-31T07:55:28;11.90;94.50
42663;DHT22;44330;51.360;6.686;2022-10-31T07:57:57;12.00;94.40
42663;DHT22;44330;51.360;6.686;2022-10-31T08:00:23;12.10;94.50
42663;DHT22;44330;51.360;6.686;2022-10-31T08:02:59;12.10;94.40
42663;DHT22;44330;51.360;6.686;2022-10-31T08:05:25;12.10;94.40
42663;DHT22;44330;51.360;6.686;2022-10-31T08:07:51;12.10;94.60
42663;DHT22;44330;51.360;6.686;2022-10-31T08:10:16;12.20;94.40
42663;DHT22;44330;51.360;6.686;2022-10-31T08:12:42;12.30;94.40
42663;DHT22;44330;51.360;6.686;2022-10-31T08:15:08;12.30;94.40
42663;DHT22;44330;51.360;6.686;2022-10-31T08:17:37;12.40;94.40
42663;DHT22;44330;51.360;6.686;2022-10-31T08:20:04;12.50;94.50
42663;DHT22;44330;51.360;6.686;2022-10-31T08:22:30;12.60;94.50
42663;DHT22;44330;51.360;6.686;2022-10-31T08:24:55;12.70;94.50
42663;DHT22;44330;51.360;6.686;2022-10-31T08:27:21;12.80;94.40
42663;DHT22;44330;51.360;6.686;2022-10-31T08:29:46;12.90;94.40
42663;DHT22;44330;51.360;6.686;2022-10-31T08:32:12;13.00;94.40
42663;DHT22;44330;51.360;6.686;2022-10-31T08:34:38;13.10;94.30
42663;DHT22;44330;51.360;6.686;2022-10-31T08:37:03;13.20;94.30
42663;DHT22;44330;51.360;6.686;2022-10-31T08:39:29;13.30;94.10
42663;DHT22;44330;51.360;6.686;2022-10-31T08:41:54;13.50;94.10
42663;DHT22;44330;51.360;6.686;2022-10-31T08:44:20;13.60;93.90
42663;DHT22;44330;51.360;6.686;2022-10-31T08:46:45;13.70;93.70
42663;DHT22;44330;51.360;6.686;2022-10-31T08:49:11;13.90;93.40
42663;DHT22;44330;51.360;6.686;2022-10-31T08:51:37;14.00;93.00
42663;DHT22;44330;51.360;6.686;2022-10-31T08:54:03;14.10;92.70
42663;DHT22;44330;51.360;6.686;2022-10-31T08:56:28;14.10;92.20
42663;DHT22;44330;51.360;6.686;2022-10-31T08:58:54;14.20;91.70
42663;DHT22;44330;51.360;6.686;2022-10-31T09:01:19;14.30;91.50
42663;DHT22;44330;51.360;6.686;2022-10-31T09:03:45;14.30;91.40
42663;DHT22;44330;51.360;6.686;2022-10-31T09:06:10;14.40;91.30
42663;DHT22;44330;51.360;6.686;2022-10-31T09:08:36;14.50;91.20
42663;DHT22;44330;51.360;6.686;2022-10-31T09:11:03;14.60;90.80
42663;DHT22;44330;51.360;6.686;2022-10-31T09:13:28;14.60;88.30
42663;DHT22;44330;51.360;6.686;2022-10-31T09:15:56;14.60;86.30
42663;DHT22;44330;51.360;6.686;2022-10-31T09:18:23;14.70;86.20
42663;DHT22;44330;51.360;6.686;2022-10-31T09:20:49;14.70;86.20
42663;DHT22;44330;51.360;6.686;2022-10-31T09:23:17;14.70;86.00
42663;DHT22;44330;51.360;6.686;2022-10-31T09:25:43;14.70;85.60
42663;DHT22;44330;51.360;6.686;2022-10-31T09:28:11;14.70;85.50
42663;DHT22;44330;51.360;6.686;2022-10-31T09:30:37;14.80;86.20
42663;DHT22;44330;51.360;6.686;2022-10-31T09:33:05;14.90;85.80
42663;DHT22;44330;51.360;6.686;2022-10-31T09:35:32;14.90;84.50
42663;DHT22;44330;51.360;6.686;2022-10-31T09:38:05;15.00;84.20
42663;DHT22;44330;51.360;6.686;2022-10-31T09:43:50;15.00;85.70
42663;DHT22;44330;51.360;6.686;2022-10-31T09:46:40;15.00;84.50
42663;DHT22;44330;51.360;6.686;2022-10-31T09:51:55;15.30;83.60
42663;DHT22;44330;51.360;6.686;2022-10-31T09:54:42;15.50;81.50
42663;DHT22;44330;51.360;6.686;2022-10-31T09:57:14;15.70;80.60
42663;DHT22;44330;51.360;6.686;2022-10-31T09:59:41;16.00;79.50
42663;DHT22;44330;51.360;6.686;2022-10-31T10:02:26;16.20;75.80
42663;DHT22;44330;51.360;6.686;2022-10-31T10:05:13;16.50;68.60
42663;DHT22;44330;51.360;6.686;2022-10-31T10:07:59;16.80;64.80
42663;DHT22;44330;51.360;6.686;2022-10-31T10:15:52;17.50;48.10
42663;DHT22;44330;51.360;6.686;2022-10-31T10:21:24;17.50;49.70
42663;DHT22;44330;51.360;6.686;2022-10-31T10:26:29;17.40;50.80
42663;DHT22;44330;51.360;6.686;2022-10-31T10:29:01;17.30;52.20
42663;DHT22;44330;51.360;6.686;2022-10-31T10:31:34;17.40;54.10
42663;DHT22;44330;51.360;6.686;2022-10-31T10:36:41;17.60;53.20
42663;DHT22;44330;51.360;6.686;2022-10-31T10:39:14;17.60;48.00
42663;DHT22;44330;51.360;6.686;2022-10-31T10:41:45;17.60;47.60
42663;DHT22;44330;51.360;6.686;2022-10-31T10:44:12;17.60;47.80
42663;DHT22;44330;51.360;6.686;2022-10-31T10:46:55;17.70;52.40
42663;DHT22;44330;51.360;6.686;2022-10-31T10:49:44;17.80;50.60
42663;DHT22;44330;51.360;6.686;2022-10-31T10:52:53;18.00;46.70
42663;DHT22;44330;51.360;6.686;2022-10-31T10:55:35;18.20;46.00
42663;DHT22;44330;51.360;6.686;2022-10-31T10:58:11;18.30;39.50
42663;DHT22;44330;51.360;6.686;2022-10-31T11:00:41;18.40;38.90
42663;DHT22;44330;51.360;6.686;2022-10-31T11:03:09;18.50;35.20
42663;DHT22;44330;51.360;6.686;2022-10-31T11:05:51;18.70;27.60
42663;DHT22;44330;51.360;6.686;2022-10-31T11:08:30;18.70;19.30
42663;DHT22;44330;51.360;6.686;2022-10-31T11:11:02;18.70;25.20
42663;DHT22;44330;51.360;6.686;2022-10-31T11:13:28;18.80;17.00
42663;DHT22;44330;51.360;6.686;2022-10-31T11:18:31;19.10;24.00
42663;DHT22;44330;51.360;6.686;2022-10-31T11:20:59;19.10;16.30
42663;DHT22;44330;51.360;6.686;2022-10-31T11:23:29;19.10;20.70
42663;DHT22;44330;51.360;6.686;2022-10-31T11:28:21;19.10;19.10
42663;DHT22;44330;51.360;6.686;2022-10-31T11:30:53;19.10;7.50
42663;DHT22;44330;51.360;6.686;2022-10-31T11:35:54;19.20;11.30
42663;DHT22;44330;51.360;6.686;2022-10-31T11:38:25;19.20;20.30
42663;DHT22;44330;51.360;6.686;2022-10-31T11:41:06;19.20;14.40
42663;DHT22;44330;51.360;6.686;2022-10-31T11:43:33;19.20;13.90
42663;DHT22;44330;51.360;6.686;2022-10-31T11:45:59;19.20;18.80
42663;DHT22;44330;51.360;6.686;2022-10-31T11:48:25;19.20;23.90
42663;DHT22;44330;51.360;6.686;2022-10-31T11:50:56;19.20;25.40
42663;DHT22;44330;51.360;6.686;2022-10-31T11:53:33;19.20;21.00
42663;DHT22;44330;51.360;6.686;2022-10-31T11:56:06;19.30;17.70
42663;DHT22;44330;51.360;6.686;2022-10-31T11:58:35;19.30;19.90
42663;DHT22;44330;51.360;6.686;2022-10-31T12:01:01;19.30;6.40
42663;DHT22;44330;51.360;6.686;2022-10-31T12:03:43;19.30;4.30
42663;DHT22;44330;51.360;6.686;2022-10-31T12:06:22;19.40;2.50
42663;DHT22;44330;51.360;6.686;2022-10-31T12:08:49;19.40;1.00
42663;DHT22;44330;51.360;6.686;2022-10-31T12:11:18;19.60;1.50
42663;DHT22;44330;51.360;6.686;2022-10-31T12:14:13;19.60;7.80
42663;DHT22;44330;51.360;6.686;2022-10-31T12:20:07;19.70;1.00
42663;DHT22;44330;51.360;6.686;2022-10-31T12:28:53;19.90;1.00
42663;DHT22;44330;51.360;6.686;2022-10-31T12:45:56;20.40;1.00
42663;DHT22;44330;51.360;6.686;2022-10-31T12:51:26;20.60;1.00
42663;DHT22;44330;51.360;6.686;2022-10-31T12:54:11;20.70;1.00
42663;DHT22;44330;51.360;6.686;2022-10-31T13:05:51;20.90;99.90
42663;DHT22;44330;51.360;6.686;2022-10-31T13:08:11;20.90;1.00
42663;DHT22;44330;51.360;6.686;2022-10-31T13:10:47;21.00;1.00
42663;DHT22;44330;51.360;6.686;2022-10-31T13:13:50;21.00;99.90
42663;DHT22;44330;51.360;6.686;2022-10-31T13:16:19;20.90;99.90
42663;DHT22;44330;51.360;6.686;2022-10-31T13:18:51;21.00;99.90
42663;DHT22;44330;51.360;6.686;2022-10-31T13:21:24;21.00;99.90
42663;DHT22;44330;51.360;6.686;2022-10-31T13:23:51;20.90;99.90
42663;DHT22;44330;51.360;6.686;2022-10-31T13:29:14;20.70;99.90
42663;DHT22;44330;51.360;6.686;2022-10-31T13:31:41;20.70;99.90
42663;DHT22;44330;51.360;6.686;2022-10-31T13:34:19;20.60;99.90
42663;DHT22;44330;51.360;6.686;2022-10-31T13:40:09;20.40;1.00
42663;DHT22;44330;51.360;6.686;2022-10-31T13:45:29;20.40;1.00
42663;DHT22;44330;51.360;6.686;2022-10-31T13:50:57;20.40;1.00
42663;DHT22;44330;51.360;6.686;2022-10-31T13:56:22;20.30;1.00
42663;DHT22;44330;51.360;6.686;2022-10-31T13:59:17;20.40;1.00
42663;DHT22;44330;51.360;6.686;2022-10-31T14:01:54;20.40;1.00
42663;DHT22;44330;51.360;6.686;2022-10-31T14:04:26;20.30;1.00
42663;DHT22;44330;51.360;6.686;2022-10-31T14:09:38;20.40;1.00
42663;DHT22;44330;51.360;6.686;2022-10-31T14:15:24;20.40;1.00
42663;DHT22;44330;51.360;6.686;2022-10-31T14:17:59;20.40;1.00
42663;DHT22;44330;51.360;6.686;2022-10-31T14:20:31;20.50;1.00
42663;DHT22;44330;51.360;6.686;2022-10-31T14:22:57;20.40;1.00
42663;DHT22;44330;51.360;6.686;2022-10-31T14:27:53;20.40;1.00
42663;DHT22;44330;51.360;6.686;2022-10-31T14:30:21;20.40;99.90
42663;DHT22;44330;51.360;6.686;2022-10-31T14:33:12;20.40;99.90
42663;DHT22;44330;51.360;6.686;2022-10-31T14:35:53;20.30;99.90
42663;DHT22;44330;51.360;6.686;2022-10-31T14:41:26;20.30;99.90
42663;DHT22;44330;51.360;6.686;2022-10-31T14:44:30;20.00;99.90
42663;DHT22;44330;51.360;6.686;2022-10-31T14:52:36;19.90;99.90
42663;DHT22;44330;51.360;6.686;2022-10-31T14:55:06;19.90;99.90
42663;DHT22;44330;51.360;6.686;2022-10-31T14:57:37;19.80;99.90
42663;DHT22;44330;51.360;6.686;2022-10-31T15:00:15;19.80;99.90
42663;DHT22;44330;51.360;6.686;2022-10-31T15:05:17;19.70;1.00
42663;DHT22;44330;51.360;6.686;2022-10-31T15:07:57;19.70;1.00
42663;DHT22;44330;51.360;6.686;2022-10-31T15:12:50;19.50;1.00
42663;DHT22;44330;51.360;6.686;2022-10-31T15:15:22;19.50;1.00
42663;DHT22;44330;51.360;6.686;2022-10-31T15:17:54;19.40;1.00
42663;DHT22;44330;51.360;6.686;2022-10-31T15:20:23;19.40;1.00
42663;DHT22;44330;51.360;6.686;2022-10-31T15:22:50;19.20;1.00
42663;DHT22;44330;51.360;6.686;2022-10-31T15:25:24;19.20;1.00
42663;DHT22;44330;51.360;6.686;2022-10-31T15:27:52;19.20;1.00
42663;DHT22;44330;51.360;6.686;2022-10-31T15:30:26;19.10;1.00
42663;DHT22;44330;51.360;6.686;2022-10-31T15:32:52;19.10;1.00
42663;DHT22;44330;51.360;6.686;2022-10-31T15:35:24;19.00;1.00
42663;DHT22;44330;51.360;6.686;2022-10-31T15:37:54;19.00;1.00
42663;DHT22;44330;51.360;6.686;2022-10-31T15:40:25;18.90;1.00
42663;DHT22;44330;51.360;6.686;2022-10-31T15:42:57;18.90;1.00
42663;DHT22;44330;51.360;6.686;2022-10-31T15:45:26;18.90;1.00
42663;DHT22;44330;51.360;6.686;2022-10-31T15:48:17;18.80;1.00
42663;DHT22;44330;51.360;6.686;2022-10-31T15:50:52;18.80;1.00
42663;DHT22;44330;51.360;6.686;2022-10-31T15:53:48;18.60;1.00
42663;DHT22;44330;51.360;6.686;2022-10-31T15:56:24;18.60;1.00
42663;DHT22;44330;51.360;6.686;2022-10-31T15:58:52;18.60;1.00
42663;DHT22;44330;51.360;6.686;2022-10-31T16:01:27;18.50;1.00
42663;DHT22;44330;51.360;6.686;2022-10-31T16:06:37;18.40;1.00
42663;DHT22;44330;51.360;6.686;2022-10-31T16:09:04;18.40;1.00
42663;DHT22;44330;51.360;6.686;2022-10-31T16:11:43;18.30;1.00
42663;DHT22;44330;51.360;6.686;2022-10-31T16:16:46;18.20;1.00
42663;DHT22;44330;51.360;6.686;2022-10-31T16:19:19;18.10;1.00
42663;DHT22;44330;51.360;6.686;2022-10-31T16:21:46;18.00;1.00
42663;DHT22;44330;51.360;6.686;2022-10-31T16:24:21;18.00;1.00
42663;DHT22;44330;51.360;6.686;2022-10-31T16:26:50;17.90;1.00
42663;DHT22;44330;51.360;6.686;2022-10-31T16:29:31;17.90;1.00
42663;DHT22;44330;51.360;6.686;2022-10-31T16:31:57;17.90;1.00
42663;DHT22;44330;51.360;6.686;2022-10-31T16:34:23;17.80;1.00
42663;DHT22;44330;51.360;6.686;2022-10-31T16:36:49;17.80;1.00
42663;DHT22;44330;51.360;6.686;2022-10-31T16:39:15;17.70;1.00
42663;DHT22;44330;51.360;6.686;2022-10-31T16:41:44;17.60;1.00
42663;DHT22;44330;51.360;6.686;2022-10-31T16:44:25;17.60;1.00
42663;DHT22;44330;51.360;6.686;2022-10-31T16:49:31;17.40;5.00
42663;DHT22;44330;51.360;6.686;2022-10-31T16:51:57;17.30;9.20
42663;DHT22;44330;51.360;6.686;2022-10-31T16:54:22;17.20;8.30
42663;DHT22;44330;51.360;6.686;2022-10-31T16:56:48;17.10;11.00
42663;DHT22;44330;51.360;6.686;2022-10-31T16:59:13;17.10;11.30
42663;DHT22;44330;51.360;6.686;2022-10-31T17:01:40;17.00;9.50
42663;DHT22;44330;51.360;6.686;2022-10-31T17:04:10;17.00;6.00
42663;DHT22;44330;51.360;6.686;2022-10-31T17:06:37;17.00;11.20
42663;DHT22;44330;51.360;6.686;2022-10-31T17:09:03;16.90;13.60
42663;DHT22;44330;51.360;6.686;2022-10-31T17:11:28;16.90;4.00
42663;DHT22;44330;51.360;6.686;2022-10-31T17:13:54;16.90;1.00
42663;DHT22;44330;51.360;6.686;2022-10-31T17:16:21;16.90;1.00
42663;DHT22;44330;51.360;6.686;2022-10-31T17:18:47;17.00;1.00
42663;DHT22;44330;51.360;6.686;2022-10-31T17:21:19;17.00;1.00
42663;DHT22;44330;51.360;6.686;2022-10-31T17:23:47;17.10;1.00
42663;DHT22;44330;51.360;6.686;2022-10-31T17:26:13;17.20;1.00
42663;DHT22;44330;51.360;6.686;2022-10-31T17:28:39;17.20;1.00
42663;DHT22;44330;51.360;6.686;2022-10-31T17:31:05;17.20;1.00
42663;DHT22;44330;51.360;6.686;2022-10-31T17:33:30;17.20;1.00
42663;DHT22;44330;51.360;6.686;2022-10-31T17:35:56;17.20;1.00
42663;DHT22;44330;51.360;6.686;2022-10-31T17:38:21;17.20;1.00
42663;DHT22;44330;51.360;6.686;2022-10-31T17:40:47;17.30;1.00
42663;DHT22;44330;51.360;6.686;2022-10-31T17:43:12;17.40;1.00
42663;DHT22;44330;51.360;6.686;2022-10-31T17:45:39;17.40;1.00
42663;DHT22;44330;51.360;6.686;2022-10-31T17:48:06;17.50;1.00
42663;DHT22;44330;51.360;6.686;2022-10-31T17:50:31;17.50;1.00
42663;DHT22;44330;51.360;6.686;2022-10-31T17:52:57;17.60;1.00
42663;DHT22;44330;51.360;6.686;2022-10-31T17:55:23;17.60;1.00
42663;DHT22;44330;51.360;6.686;2022-10-31T17:57:49;17.70;1.00
42663;DHT22;44330;51.360;6.686;2022-10-31T18:00:18;17.60;1.00
42663;DHT22;44330;51.360;6.686;2022-10-31T18:02:45;17.60;1.00
42663;DHT22;44330;51.360;6.686;2022-10-31T18:05:11;17.60;1.00
42663;DHT22;44330;51.360;6.686;2022-10-31T18:07:37;17.60;1.00
42663;DHT22;44330;51.360;6.686;2022-10-31T18:10:03;17.60;1.00
42663;DHT22;44330;51.360;6.686;2022-10-31T18:12:29;17.60;1.00
42663;DHT22;44330;51.360;6.686;2022-10-31T18:14:56;17.70;1.00
42663;DHT22;44330;51.360;6.686;2022-10-31T18:17:22;17.70;99.90